createdAt,value
2023-05-20T00:00:22.026Z,84.56
2023-05-20T00:01:22.006Z,84.56
2023-05-20T00:02:22.126Z,84.66
2023-05-20T00:03:22.104Z,84.87
2023-05-20T00:04:22.011Z,84.60
2023-05-20T00:05:21.992Z,84.36
2023-05-20T00:06:21.958Z,84.56
2023-05-20T00:07:22.015Z,84.56
2023-05-20T00:08:21.920Z,84.50
2023-05-20T00:09:21.917Z,84.60
2023-05-20T00:10:21.953Z,84.70
2023-05-20T00:11:21.885Z,84.60
2023-05-20T00:12:21.956Z,85.11
2023-05-20T00:13:21.859Z,84.91
2023-05-20T00:14:21.890Z,85.01
2023-05-20T00:15:21.855Z,84.91
2023-05-20T00:16:21.893Z,84.80
2023-05-20T00:17:21.818Z,85.11
2023-05-20T00:18:21.824Z,84.60
2023-05-20T00:19:21.835Z,84.64
2023-05-20T00:20:21.779Z,85.01
2023-05-20T00:21:21.777Z,84.91
2023-05-20T00:22:21.798Z,85.01
2023-05-20T00:23:21.807Z,85.05
2023-05-20T00:24:21.781Z,84.70
2023-05-20T00:25:21.732Z,84.74
2023-05-20T00:26:21.715Z,84.74
2023-05-20T00:27:21.700Z,84.74
2023-05-20T00:28:21.742Z,84.74
2023-05-20T00:29:21.695Z,85.15
2023-05-20T00:30:21.710Z,84.95
2023-05-20T00:31:21.743Z,84.74
2023-05-20T00:32:21.705Z,84.64
2023-05-20T00:33:21.634Z,84.74
2023-05-20T00:34:21.656Z,84.74
2023-05-20T00:35:21.614Z,85.05
2023-05-20T00:36:21.622Z,84.84
2023-05-20T00:37:21.585Z,84.95
2023-05-20T00:38:21.678Z,84.74
2023-05-20T00:39:21.567Z,85.05
2023-05-20T00:40:21.630Z,85.09
2023-05-20T00:41:21.548Z,85.09
2023-05-20T00:42:21.537Z,85.19
2023-05-20T00:43:21.514Z,85.09
2023-05-20T00:44:21.533Z,84.99
2023-05-20T00:45:21.525Z,84.99
2023-05-20T00:46:21.576Z,84.28
2023-05-20T00:47:21.570Z,84.58
2023-05-20T00:48:21.488Z,85.03
2023-05-20T00:49:21.454Z,84.78
2023-05-20T00:50:21.448Z,84.78
2023-05-20T00:51:21.505Z,84.82
2023-05-20T00:52:21.443Z,84.58
2023-05-20T00:53:21.458Z,84.82
2023-05-20T00:54:21.420Z,85.03
2023-05-20T00:55:21.388Z,85.03
2023-05-20T00:56:21.372Z,85.03
2023-05-20T00:57:21.361Z,84.21
2023-05-20T00:58:21.409Z,85.03
2023-05-20T00:59:21.335Z,84.92
2023-05-20T01:00:21.353Z,85.13
2023-05-20T01:01:21.364Z,84.62
2023-05-20T01:02:21.378Z,85.23
2023-05-20T01:03:22.541Z,85.13
2023-05-20T01:04:21.301Z,85.23
2023-05-20T01:05:21.288Z,84.42
2023-05-20T01:06:21.277Z,85.13
2023-05-20T01:07:21.248Z,85.06
2023-05-20T01:08:21.240Z,85.03
2023-05-20T01:09:21.256Z,84.82
2023-05-20T01:10:21.214Z,84.97
2023-05-20T01:11:21.193Z,84.92
2023-05-20T01:12:21.229Z,84.56
2023-05-20T01:13:21.189Z,85.17
2023-05-20T01:14:21.171Z,84.97
2023-05-20T01:15:21.187Z,84.45
2023-05-20T01:16:21.264Z,84.45
2023-05-20T01:17:21.180Z,85.06
2023-05-20T01:18:21.114Z,85.06
2023-05-20T01:19:21.220Z,85.06
2023-05-20T01:20:21.115Z,85.06
2023-05-20T01:21:21.118Z,84.97
2023-05-20T01:22:21.087Z,84.35
2023-05-20T01:23:21.090Z,84.90
2023-05-20T01:24:21.061Z,85.11
2023-05-20T01:25:21.051Z,84.90
2023-05-20T01:26:21.025Z,85.00
2023-05-20T01:27:21.059Z,85.11
2023-05-20T01:28:21.022Z,85.00
2023-05-20T01:29:21.020Z,85.41
2023-05-20T01:30:21.008Z,84.80
2023-05-20T01:31:21.043Z,85.31
2023-05-20T01:32:20.985Z,85.21
2023-05-20T01:33:20.998Z,84.90
2023-05-20T01:34:20.945Z,85.05
2023-05-20T01:35:20.932Z,84.94
2023-05-20T01:36:20.911Z,84.94
2023-05-20T01:37:20.898Z,85.25
2023-05-20T01:38:20.887Z,84.94
2023-05-20T01:39:20.955Z,85.25
2023-05-20T01:40:20.864Z,85.45
2023-05-20T01:41:20.990Z,85.35
2023-05-20T01:42:20.862Z,85.25
2023-05-20T01:43:20.834Z,85.14
2023-05-20T01:44:20.816Z,85.25
2023-05-20T01:45:20.852Z,84.64
2023-05-20T01:46:20.833Z,84.74
2023-05-20T01:47:20.811Z,84.74
2023-05-20T01:48:20.831Z,85.05
2023-05-20T01:49:20.763Z,85.35
2023-05-20T01:50:20.750Z,84.33
2023-05-20T01:51:20.805Z,84.64
2023-05-20T01:52:20.727Z,84.84
2023-05-20T01:53:20.743Z,85.14
2023-05-20T01:54:20.701Z,85.11
2023-05-20T01:55:20.713Z,84.84
2023-05-20T01:56:20.683Z,84.70
2023-05-20T01:57:20.684Z,85.00
2023-05-20T01:58:20.662Z,85.31
2023-05-20T01:59:20.758Z,85.11
2023-05-20T02:00:20.655Z,85.00
2023-05-20T02:01:20.814Z,85.11
2023-05-20T02:02:20.759Z,85.00
2023-05-20T02:03:20.680Z,85.21
2023-05-20T02:04:20.619Z,85.21
2023-05-20T02:05:20.615Z,85.21
2023-05-20T02:06:20.675Z,84.90
2023-05-20T02:07:20.590Z,84.86
2023-05-20T02:08:20.555Z,84.80
2023-05-20T02:09:20.573Z,84.80
2023-05-20T02:10:20.519Z,84.80
2023-05-20T02:11:20.507Z,84.80
2023-05-20T02:12:20.524Z,84.66
2023-05-20T02:13:20.531Z,84.76
2023-05-20T02:14:20.479Z,84.76
2023-05-20T02:15:20.531Z,84.76
2023-05-20T02:16:20.522Z,84.66
2023-05-20T02:17:20.445Z,84.86
2023-05-20T02:18:20.430Z,84.97
2023-05-20T02:19:20.530Z,84.97
2023-05-20T02:20:20.471Z,84.97
2023-05-20T02:21:20.445Z,84.25
2023-05-20T02:22:20.387Z,84.15
2023-05-20T02:23:20.376Z,84.86
2023-05-20T02:24:20.365Z,84.31
2023-05-20T02:25:20.357Z,84.31
2023-05-20T02:26:20.345Z,84.97
2023-05-20T02:27:20.351Z,84.15
2023-05-20T02:28:20.323Z,84.11
2023-05-20T02:29:20.374Z,84.31
2023-05-20T02:30:20.331Z,84.15
2023-05-20T02:31:20.287Z,84.11
2023-05-20T02:32:20.313Z,84.11
2023-05-20T02:33:20.365Z,84.21
2023-05-20T02:34:20.356Z,84.31
2023-05-20T02:35:20.248Z,84.62
2023-05-20T02:36:20.255Z,84.21
2023-05-20T02:37:20.218Z,84.52
2023-05-20T02:38:20.210Z,84.62
2023-05-20T02:39:20.263Z,84.05
2023-05-20T02:40:20.186Z,84.82
2023-05-20T02:41:20.179Z,84.92
2023-05-20T02:42:20.193Z,84.82
2023-05-20T02:43:20.181Z,84.72
2023-05-20T02:44:20.160Z,84.11
2023-05-20T02:45:20.180Z,84.21
2023-05-20T02:46:20.163Z,84.31
2023-05-20T02:47:20.109Z,84.31
2023-05-20T02:48:20.087Z,85.13
2023-05-20T02:49:20.085Z,84.11
2023-05-20T02:50:20.092Z,84.11
2023-05-20T02:51:20.094Z,84.11
2023-05-20T02:52:20.099Z,84.11
2023-05-20T02:53:20.074Z,84.01
2023-05-20T02:54:20.037Z,84.11
2023-05-20T02:55:20.027Z,84.11
2023-05-20T02:56:20.005Z,84.31
2023-05-20T02:57:20.100Z,84.21
2023-05-20T02:58:19.981Z,84.31
2023-05-20T02:59:19.977Z,84.01
2023-05-20T03:00:19.953Z,84.42
2023-05-20T03:01:20.045Z,84.31
2023-05-20T03:02:19.928Z,84.21
2023-05-20T03:03:19.967Z,84.11
2023-05-20T03:04:19.976Z,84.31
2023-05-20T03:05:19.892Z,84.62
2023-05-20T03:06:19.885Z,84.62
2023-05-20T03:07:19.911Z,84.72
2023-05-20T03:08:19.887Z,84.62
2023-05-20T03:09:19.880Z,84.62
2023-05-20T03:10:19.839Z,84.62
2023-05-20T03:11:19.871Z,84.62
2023-05-20T03:12:19.839Z,84.78
2023-05-20T03:13:19.812Z,84.62
2023-05-20T03:14:19.889Z,84.62
2023-05-20T03:15:19.816Z,84.62
2023-05-20T03:16:19.837Z,84.82
2023-05-20T03:17:19.840Z,84.68
2023-05-20T03:18:19.754Z,84.72
2023-05-20T03:19:19.817Z,84.48
2023-05-20T03:20:19.725Z,84.68
2023-05-20T03:21:19.764Z,84.68
2023-05-20T03:22:19.712Z,84.28
2023-05-20T03:23:19.694Z,84.58
2023-05-20T03:24:19.709Z,84.58
2023-05-20T03:25:19.673Z,84.58
2023-05-20T03:26:19.663Z,84.48
2023-05-20T03:27:19.668Z,84.68
2023-05-20T03:28:19.632Z,84.58
2023-05-20T03:29:19.643Z,84.68
2023-05-20T03:30:19.635Z,84.48
2023-05-20T03:31:19.666Z,84.48
2023-05-20T03:32:19.639Z,84.68
2023-05-20T03:33:19.612Z,84.48
2023-05-20T03:34:19.566Z,84.58
2023-05-20T03:35:19.558Z,84.48
2023-05-20T03:36:19.544Z,84.78
2023-05-20T03:37:19.544Z,84.68
2023-05-20T03:38:19.526Z,84.68
2023-05-20T03:39:19.545Z,84.17
2023-05-20T03:40:19.523Z,84.17
2023-05-20T03:41:19.550Z,84.38
2023-05-20T03:42:19.477Z,84.38
2023-05-20T03:43:19.468Z,83.87
2023-05-20T03:44:19.470Z,83.76
2023-05-20T03:45:19.461Z,84.07
2023-05-20T03:46:19.469Z,84.17
2023-05-20T03:47:19.481Z,83.87
2023-05-20T03:48:19.416Z,84.07
2023-05-20T03:49:19.401Z,83.87
2023-05-20T03:50:19.403Z,83.76
2023-05-20T03:51:19.433Z,84.28
2023-05-20T03:52:19.382Z,84.38
2023-05-20T03:53:19.362Z,83.97
2023-05-20T03:54:19.339Z,83.56
2023-05-20T03:55:19.330Z,84.07
2023-05-20T03:56:19.359Z,84.17
2023-05-20T03:57:19.375Z,84.07
2023-05-20T03:58:19.300Z,83.87
2023-05-20T03:59:19.294Z,83.97
2023-05-20T04:00:19.276Z,83.62
2023-05-20T04:01:19.265Z,84.07
2023-05-20T04:02:19.348Z,83.67
2023-05-20T04:03:19.356Z,84.38
2023-05-20T04:04:19.352Z,84.17
2023-05-20T04:05:19.214Z,83.67
2023-05-20T04:06:19.214Z,84.07
2023-05-20T04:07:19.210Z,84.07
2023-05-20T04:08:19.187Z,83.97
2023-05-20T04:09:19.230Z,84.48
2023-05-20T04:10:19.197Z,84.28
2023-05-20T04:11:19.174Z,83.83
2023-05-20T04:12:19.161Z,84.07
2023-05-20T04:13:19.126Z,84.38
2023-05-20T04:14:19.126Z,84.28
2023-05-20T04:15:19.141Z,84.38
2023-05-20T04:16:19.150Z,84.03
2023-05-20T04:17:19.084Z,84.34
2023-05-20T04:18:19.130Z,84.13
2023-05-20T04:19:19.120Z,84.13
2023-05-20T04:20:19.069Z,84.03
2023-05-20T04:21:19.083Z,84.23
2023-05-20T04:22:19.052Z,84.03
2023-05-20T04:23:19.023Z,84.03
2023-05-20T04:24:19.029Z,83.73
2023-05-20T04:25:18.996Z,83.73
2023-05-20T04:26:18.973Z,84.03
2023-05-20T04:27:19.033Z,83.93
2023-05-20T04:28:18.985Z,83.99
2023-05-20T04:29:18.952Z,83.89
2023-05-20T04:30:18.938Z,84.13
2023-05-20T04:31:18.944Z,83.89
2023-05-20T04:32:19.092Z,83.28
2023-05-20T04:33:18.948Z,83.65
2023-05-20T04:34:18.891Z,83.38
2023-05-20T04:35:18.888Z,83.14
2023-05-20T04:36:18.861Z,83.14
2023-05-20T04:37:18.854Z,83.75
2023-05-20T04:38:18.856Z,83.75
2023-05-20T04:39:18.887Z,83.85
2023-05-20T04:40:18.835Z,83.54
2023-05-20T04:41:18.821Z,83.51
2023-05-20T04:42:18.931Z,83.40
2023-05-20T04:43:18.787Z,83.10
2023-05-20T04:44:18.802Z,83.40
2023-05-20T04:45:18.808Z,83.20
2023-05-20T04:46:18.831Z,83.10
2023-05-20T04:47:18.760Z,83.47
2023-05-20T04:48:18.731Z,83.47
2023-05-20T04:49:18.728Z,83.37
2023-05-20T04:50:18.729Z,83.17
2023-05-20T04:51:18.742Z,83.33
2023-05-20T04:52:18.678Z,83.57
2023-05-20T04:53:18.752Z,83.17
2023-05-20T04:54:18.660Z,83.23
2023-05-20T04:55:18.658Z,83.23
2023-05-20T04:56:18.646Z,83.53
2023-05-20T04:57:18.643Z,83.12
2023-05-20T04:58:18.616Z,83.73
2023-05-20T04:59:18.607Z,82.58
2023-05-20T05:00:18.624Z,82.82
2023-05-20T05:01:18.635Z,82.38
2023-05-20T05:02:18.570Z,82.48
2023-05-20T05:03:18.590Z,82.78
2023-05-20T05:04:18.608Z,82.58
2023-05-20T05:05:18.536Z,82.58
2023-05-20T05:06:18.541Z,82.44
2023-05-20T05:07:18.525Z,82.24
2023-05-20T05:08:18.502Z,82.14
2023-05-20T05:09:18.511Z,81.93
2023-05-20T05:10:18.493Z,81.49
2023-05-20T05:11:18.473Z,81.79
2023-05-20T05:12:18.497Z,81.90
2023-05-20T05:13:18.440Z,81.65
2023-05-20T05:14:18.436Z,81.76
2023-05-20T05:15:18.490Z,81.76
2023-05-20T05:16:18.534Z,81.76
2023-05-20T05:17:18.409Z,81.76
2023-05-20T05:18:18.400Z,81.71
2023-05-20T05:19:18.464Z,81.71
2023-05-20T05:20:18.388Z,81.62
2023-05-20T05:21:18.386Z,81.68
2023-05-20T05:22:18.366Z,81.78
2023-05-20T05:23:18.334Z,81.68
2023-05-20T05:24:18.328Z,80.83
2023-05-20T05:25:18.345Z,81.34
2023-05-20T05:26:18.302Z,81.54
2023-05-20T05:27:18.335Z,81.23
2023-05-20T05:28:18.275Z,80.93
2023-05-20T05:29:18.270Z,80.90
2023-05-20T05:30:18.273Z,81.50
2023-05-20T05:31:18.238Z,81.20
2023-05-20T05:32:18.414Z,81.50
2023-05-20T05:33:18.306Z,80.96
2023-05-20T05:34:25.974Z,81.05
2023-05-20T05:35:18.196Z,81.36
2023-05-20T05:36:18.214Z,81.26
2023-05-20T05:37:18.180Z,81.56
2023-05-20T05:38:25.519Z,81.46
2023-05-20T05:39:18.150Z,81.67
2023-05-20T05:40:18.145Z,81.56
2023-05-20T05:41:18.164Z,81.67
2023-05-20T05:42:18.119Z,81.56
2023-05-20T05:43:18.117Z,81.67
2023-05-20T05:44:18.149Z,81.56
2023-05-20T05:45:18.078Z,81.56
2023-05-20T05:46:18.142Z,81.67
2023-05-20T05:47:18.080Z,81.46
2023-05-20T05:48:18.075Z,81.36
2023-05-20T05:49:18.037Z,81.46
2023-05-20T05:50:18.054Z,81.22
2023-05-20T05:51:18.043Z,81.22
2023-05-20T05:52:18.013Z,81.32
2023-05-20T05:53:18.035Z,81.56
2023-05-20T05:54:17.992Z,81.52
2023-05-20T05:55:17.986Z,81.32
2023-05-20T05:56:18.003Z,81.36
2023-05-20T05:57:17.940Z,81.56
2023-05-20T05:58:17.950Z,81.73
2023-05-20T05:59:17.923Z,81.67
2023-05-20T06:00:17.973Z,81.87
2023-05-20T06:01:17.920Z,81.82
2023-05-20T06:02:18.070Z,81.87
2023-05-20T06:03:17.935Z,81.73
2023-05-20T06:04:17.929Z,81.82
2023-05-20T06:05:17.861Z,81.36
2023-05-20T06:06:17.900Z,81.73
2023-05-20T06:07:17.836Z,81.36
2023-05-20T06:08:17.864Z,82.03
2023-05-20T06:09:17.805Z,81.67
2023-05-20T06:10:17.800Z,81.67
2023-05-20T06:11:17.797Z,81.87
2023-05-20T06:12:17.776Z,81.82
2023-05-20T06:13:17.781Z,81.82
2023-05-20T06:14:17.769Z,81.67
2023-05-20T06:15:17.798Z,81.96
2023-05-20T06:16:17.788Z,81.73
2023-05-20T06:17:17.768Z,81.22
2023-05-20T06:18:17.713Z,81.73
2023-05-20T06:19:17.928Z,81.62
2023-05-20T06:20:17.734Z,81.79
2023-05-20T06:21:17.681Z,81.89
2023-05-20T06:22:17.667Z,81.79
2023-05-20T06:23:17.648Z,81.28
2023-05-20T06:24:17.657Z,81.28
2023-05-20T06:25:17.649Z,81.24
2023-05-20T06:26:17.651Z,81.24
2023-05-20T06:27:17.602Z,81.15
2023-05-20T06:28:17.620Z,81.55
2023-05-20T06:29:17.573Z,81.24
2023-05-20T06:30:17.579Z,81.41
2023-05-20T06:31:17.599Z,81.51
2023-05-20T06:32:17.582Z,81.41
2023-05-20T06:33:17.580Z,81.17
2023-05-20T06:34:17.522Z,81.21
2023-05-20T06:35:17.526Z,81.37
2023-05-20T06:36:17.569Z,81.17
2023-05-20T06:37:17.496Z,81.17
2023-05-20T06:38:17.609Z,81.37
2023-05-20T06:39:17.482Z,81.27
2023-05-20T06:40:17.456Z,81.33
2023-05-20T06:41:17.439Z,81.27
2023-05-20T06:42:17.453Z,81.43
2023-05-20T06:43:17.559Z,81.23
2023-05-20T06:44:17.457Z,81.33
2023-05-20T06:45:17.406Z,81.53
2023-05-20T06:46:17.418Z,81.23
2023-05-20T06:47:17.377Z,81.23
2023-05-20T06:48:17.359Z,81.23
2023-05-20T06:49:17.350Z,81.49
2023-05-20T06:50:17.390Z,81.49
2023-05-20T06:51:17.337Z,81.09
2023-05-20T06:52:17.364Z,80.89
2023-05-20T06:53:17.324Z,80.85
2023-05-20T06:54:17.300Z,80.85
2023-05-20T06:55:17.306Z,80.55
2023-05-20T06:56:17.374Z,80.55
2023-05-20T06:57:17.263Z,80.75
2023-05-20T06:58:17.259Z,80.75
2023-05-20T06:59:17.258Z,80.95
2023-05-20T07:00:17.226Z,80.91
2023-05-20T07:01:18.377Z,80.75
2023-05-20T07:02:17.213Z,80.81
2023-05-20T07:03:17.250Z,80.61
2023-05-20T07:04:17.261Z,80.61
2023-05-20T07:05:17.174Z,80.71
2023-05-20T07:06:17.165Z,80.57
2023-05-20T07:07:17.524Z,80.71
2023-05-20T07:08:17.181Z,80.77
2023-05-20T07:09:17.129Z,80.57
2023-05-20T07:10:17.111Z,80.57
2023-05-20T07:11:17.129Z,80.68
2023-05-20T07:12:17.090Z,80.54
2023-05-20T07:13:17.087Z,80.74
2023-05-20T07:14:17.114Z,80.77
2023-05-20T07:15:17.060Z,80.33
2023-05-20T07:16:17.150Z,80.63
2023-05-20T07:17:18.019Z,80.54
2023-05-20T07:18:17.061Z,80.60
2023-05-20T07:19:17.039Z,80.40
2023-05-20T07:20:17.029Z,80.16
2023-05-20T07:21:16.994Z,80.66
2023-05-20T07:22:16.993Z,80.26
2023-05-20T07:23:16.959Z,80.36
2023-05-20T07:24:16.978Z,80.52
2023-05-20T07:25:16.953Z,80.32
2023-05-20T07:26:17.013Z,80.32
2023-05-20T07:27:16.954Z,79.78
2023-05-20T07:28:16.901Z,79.88
2023-05-20T07:29:16.896Z,80.08
2023-05-20T07:30:16.891Z,80.18
2023-05-20T07:31:16.917Z,80.18
2023-05-20T07:32:16.885Z,80.18
2023-05-20T07:33:16.852Z,80.24
2023-05-20T07:34:16.840Z,80.24
2023-05-20T07:35:16.850Z,80.24
2023-05-20T07:36:16.812Z,80.00
2023-05-20T07:37:16.852Z,80.11
2023-05-20T07:38:16.832Z,80.00
2023-05-20T07:39:16.787Z,80.30
2023-05-20T07:40:16.837Z,80.11
2023-05-20T07:41:16.760Z,80.07
2023-05-20T07:42:16.777Z,80.17
2023-05-20T07:43:16.738Z,80.07
2023-05-20T07:44:16.784Z,79.97
2023-05-20T07:45:16.755Z,79.97
2023-05-20T07:46:19.362Z,80.03
2023-05-20T07:47:16.696Z,79.93
2023-05-20T07:48:16.692Z,79.93
2023-05-20T07:49:16.713Z,80.03
2023-05-20T07:50:16.693Z,80.03
2023-05-20T07:51:16.657Z,79.99
2023-05-20T07:52:16.643Z,79.99
2023-05-20T07:53:16.652Z,79.89
2023-05-20T07:54:16.628Z,79.89
2023-05-20T07:55:16.631Z,79.85
2023-05-20T07:56:16.665Z,79.85
2023-05-20T07:57:16.581Z,79.75
2023-05-20T07:58:16.578Z,79.85
2023-05-20T07:59:16.564Z,79.61
2023-05-20T08:00:16.566Z,79.72
2023-05-20T08:01:16.738Z,79.82
2023-05-20T08:02:16.583Z,79.82
2023-05-20T08:03:16.580Z,80.08
2023-05-20T08:04:16.556Z,80.08
2023-05-20T08:05:16.493Z,79.97
2023-05-20T08:06:16.483Z,79.94
2023-05-20T08:07:16.475Z,79.94
2023-05-20T08:08:16.487Z,79.94
2023-05-20T08:09:16.444Z,79.84
2023-05-20T08:10:16.509Z,80.04
2023-05-20T08:11:16.448Z,80.00
2023-05-20T08:12:16.459Z,78.80
2023-05-20T08:13:16.436Z,79.00
2023-05-20T08:14:16.452Z,78.90
2023-05-20T08:15:16.373Z,78.97
2023-05-20T08:16:16.440Z,78.97
2023-05-20T08:17:16.405Z,78.97
2023-05-20T08:18:16.349Z,79.16
2023-05-20T08:19:16.406Z,78.92
2023-05-20T08:20:16.469Z,78.83
2023-05-20T08:21:16.331Z,79.03
2023-05-20T08:22:16.294Z,78.83
2023-05-20T08:23:16.289Z,78.73
2023-05-20T08:24:16.287Z,78.69
2023-05-20T08:25:16.282Z,78.89
2023-05-20T08:26:16.379Z,78.59
2023-05-20T08:27:16.239Z,78.59
2023-05-20T08:28:16.259Z,78.65
2023-05-20T08:29:16.226Z,78.45
2023-05-20T08:30:16.226Z,78.75
2023-05-20T08:31:16.270Z,78.55
2023-05-20T08:32:16.304Z,78.42
2023-05-20T08:33:16.180Z,78.22
2023-05-20T08:34:16.168Z,78.22
2023-05-20T08:35:16.188Z,78.12
2023-05-20T08:36:16.150Z,78.42
2023-05-20T08:37:16.129Z,78.28
2023-05-20T08:38:16.168Z,78.18
2023-05-20T08:39:16.160Z,77.68
2023-05-20T08:40:16.097Z,77.58
2023-05-20T08:41:16.101Z,77.68
2023-05-20T08:42:16.074Z,78.04
2023-05-20T08:43:16.094Z,77.55
2023-05-20T08:44:16.139Z,77.94
2023-05-20T08:45:16.044Z,77.94
2023-05-20T08:46:18.155Z,77.91
2023-05-20T08:47:16.018Z,78.11
2023-05-20T08:48:16.003Z,77.91
2023-05-20T08:49:15.999Z,78.11
2023-05-20T08:50:16.148Z,78.11
2023-05-20T08:51:15.985Z,78.20
2023-05-20T08:52:15.966Z,78.20
2023-05-20T08:53:15.955Z,78.11
2023-05-20T08:54:15.968Z,78.11
2023-05-20T08:55:15.964Z,78.06
2023-05-20T08:56:15.972Z,78.00
2023-05-20T08:57:15.914Z,78.06
2023-05-20T08:58:15.916Z,78.27
2023-05-20T08:59:15.892Z,77.87
2023-05-20T09:00:16.049Z,78.17
2023-05-20T09:01:15.932Z,78.27
2023-05-20T09:02:16.110Z,78.17
2023-05-20T09:03:15.866Z,78.23
2023-05-20T09:04:15.831Z,77.44
2023-05-20T09:05:15.850Z,77.93
2023-05-20T09:06:15.808Z,78.03
2023-05-20T09:07:15.820Z,78.03
2023-05-20T09:08:15.854Z,77.99
2023-05-20T09:09:15.803Z,77.99
2023-05-20T09:10:15.782Z,78.09
2023-05-20T09:11:15.757Z,78.19
2023-05-20T09:12:15.779Z,78.05
2023-05-20T09:13:15.738Z,77.66
2023-05-20T09:14:15.766Z,77.66
2023-05-20T09:15:15.706Z,77.52
2023-05-20T09:16:15.761Z,77.52
2023-05-20T09:17:15.684Z,77.72
2023-05-20T09:18:15.683Z,77.52
2023-05-20T09:19:15.724Z,77.62
2023-05-20T09:20:15.675Z,77.12
2023-05-20T09:21:15.647Z,77.28
2023-05-20T09:22:15.622Z,77.28
2023-05-20T09:23:15.619Z,77.39
2023-05-20T09:24:15.609Z,76.99
2023-05-20T09:25:15.632Z,77.28
2023-05-20T09:26:15.623Z,77.28
2023-05-20T09:27:15.567Z,77.28
2023-05-20T09:28:15.614Z,77.25
2023-05-20T09:29:15.578Z,77.55
2023-05-20T09:30:15.562Z,77.45
2023-05-20T09:31:15.674Z,76.95
2023-05-20T09:32:15.596Z,77.25
2023-05-20T09:33:15.525Z,77.25
2023-05-20T09:34:15.521Z,77.34
2023-05-20T09:35:15.484Z,77.15
2023-05-20T09:36:16.662Z,77.01
2023-05-20T09:37:15.483Z,76.81
2023-05-20T09:38:15.498Z,77.21
2023-05-20T09:39:15.435Z,77.21
2023-05-20T09:40:15.477Z,77.01
2023-05-20T09:41:15.505Z,77.27
2023-05-20T09:42:15.404Z,77.80
2023-05-20T09:43:15.391Z,77.31
2023-05-20T09:44:15.407Z,77.17
2023-05-20T09:45:15.458Z,76.87
2023-05-20T09:46:15.375Z,77.27
2023-05-20T09:47:15.345Z,77.57
2023-05-20T09:48:15.420Z,77.67
2023-05-20T09:49:15.334Z,77.53
2023-05-20T09:50:15.336Z,76.74
2023-05-20T09:51:15.326Z,77.29
2023-05-20T09:52:15.288Z,77.20
2023-05-20T09:53:15.290Z,76.80
2023-05-20T09:54:15.275Z,77.16
2023-05-20T09:55:15.266Z,76.67
2023-05-20T09:56:15.306Z,76.33
2023-05-20T09:57:15.255Z,75.60
2023-05-20T09:58:16.283Z,75.96
2023-05-20T09:59:15.230Z,75.63
2023-05-20T10:00:15.218Z,74.94
2023-05-20T10:01:15.283Z,74.41
2023-05-20T10:02:15.304Z,74.28
2023-05-20T10:03:15.257Z,74.54
2023-05-20T10:04:15.192Z,74.24
2023-05-20T10:05:15.157Z,74.54
2023-05-20T10:06:15.139Z,74.15
2023-05-20T10:07:15.134Z,74.44
2023-05-20T10:08:15.160Z,74.40
2023-05-20T10:09:15.118Z,74.99
2023-05-20T10:10:15.105Z,74.27
2023-05-20T10:11:15.123Z,74.46
2023-05-20T10:12:15.082Z,74.17
2023-05-20T10:13:15.083Z,74.23
2023-05-20T10:14:15.076Z,74.04
2023-05-20T10:15:15.051Z,74.17
2023-05-20T10:16:15.087Z,74.13
2023-05-20T10:17:15.033Z,73.74
2023-05-20T10:18:15.006Z,74.43
2023-05-20T10:19:15.024Z,74.37
2023-05-20T10:20:15.082Z,74.27
2023-05-20T10:21:14.980Z,74.27
2023-05-20T10:22:14.969Z,74.17
2023-05-20T10:23:14.956Z,74.46
2023-05-20T10:24:14.967Z,74.60
2023-05-20T10:25:14.937Z,74.50
2023-05-20T10:26:14.945Z,74.56
2023-05-20T10:27:14.917Z,74.27
2023-05-20T10:28:14.904Z,74.37
2023-05-20T10:29:14.899Z,74.27
2023-05-20T10:30:14.904Z,74.60
2023-05-20T10:31:14.869Z,74.30
2023-05-20T10:32:14.976Z,74.27
2023-05-20T10:33:14.878Z,74.56
2023-05-20T10:34:14.840Z,74.60
2023-05-20T10:35:14.866Z,74.50
2023-05-20T10:36:14.844Z,74.80
2023-05-20T10:37:14.794Z,74.40
2023-05-20T10:38:14.820Z,74.50
2023-05-20T10:39:14.778Z,74.60
2023-05-20T10:40:14.774Z,74.50
2023-05-20T10:41:14.766Z,74.21
2023-05-20T10:42:14.759Z,74.30
2023-05-20T10:43:14.760Z,74.21
2023-05-20T10:44:14.828Z,74.11
2023-05-20T10:45:14.711Z,74.30
2023-05-20T10:46:26.399Z,74.34
2023-05-20T10:47:24.853Z,74.63
2023-05-20T10:48:15.851Z,74.63
2023-05-20T10:49:14.763Z,74.73
2023-05-20T10:50:14.744Z,74.48
2023-05-20T10:51:14.664Z,75.07
2023-05-20T10:52:14.661Z,74.83
2023-05-20T10:53:29.335Z,75.07
2023-05-20T10:54:15.605Z,74.87
2023-05-20T10:55:14.610Z,74.87
2023-05-20T10:56:14.679Z,74.87
2023-05-20T10:57:14.595Z,75.40
2023-05-20T10:58:14.576Z,75.49
2023-05-20T10:59:14.590Z,75.53
2023-05-20T11:00:14.609Z,75.34
2023-05-20T11:01:14.599Z,75.83
2023-05-20T11:02:14.569Z,75.24
2023-05-20T11:03:14.585Z,75.53
2023-05-20T11:04:14.556Z,75.27
2023-05-20T11:05:14.503Z,75.57
2023-05-20T11:06:16.155Z,75.37
2023-05-20T11:07:14.473Z,75.47
2023-05-20T11:09:15.442Z,75.96
2023-05-20T11:10:14.462Z,75.57
2023-05-20T11:11:14.450Z,75.37
2023-05-20T11:12:15.642Z,75.37
2023-05-20T11:13:14.469Z,75.63
2023-05-20T11:14:14.474Z,75.27
2023-05-20T11:15:14.398Z,75.73
2023-05-20T11:16:14.407Z,75.34
2023-05-20T11:17:14.384Z,75.67
2023-05-20T11:18:15.510Z,75.63
2023-05-20T11:19:14.370Z,75.53
2023-05-20T11:20:14.419Z,75.47
2023-05-20T11:21:14.318Z,75.93
2023-05-20T11:22:14.301Z,75.83
2023-05-20T11:23:14.303Z,75.53
2023-05-20T11:24:14.329Z,75.18
2023-05-20T11:25:14.263Z,75.24
2023-05-20T11:26:14.322Z,75.24
2023-05-20T11:27:14.259Z,75.24
2023-05-20T11:28:14.385Z,74.94
2023-05-20T11:29:14.244Z,75.14
2023-05-20T11:30:14.217Z,74.94
2023-05-20T11:31:14.199Z,74.44
2023-05-20T11:32:14.241Z,74.74
2023-05-20T11:33:14.318Z,74.68
2023-05-20T11:34:14.171Z,74.65
2023-05-20T11:35:14.156Z,74.74
2023-05-20T11:36:26.894Z,74.55
2023-05-20T11:37:15.203Z,74.55
2023-05-20T11:38:14.140Z,74.65
2023-05-20T11:39:14.112Z,74.65
2023-05-20T11:40:14.168Z,74.44
2023-05-20T11:41:14.094Z,74.35
2023-05-20T11:42:14.079Z,74.35
2023-05-20T11:43:14.114Z,74.15
2023-05-20T11:44:14.068Z,74.35
2023-05-20T11:45:14.062Z,74.25
2023-05-20T11:46:14.077Z,74.55
2023-05-20T11:47:14.042Z,74.25
2023-05-20T11:48:14.075Z,74.55
2023-05-20T11:49:14.023Z,74.65
2023-05-20T11:50:13.989Z,74.35
2023-05-20T11:51:13.979Z,74.35
2023-05-20T11:52:13.968Z,74.19
2023-05-20T11:53:13.968Z,74.29
2023-05-20T11:54:13.950Z,74.48
2023-05-20T11:55:14.040Z,74.58
2023-05-20T11:56:13.942Z,74.55
2023-05-20T11:57:13.913Z,74.58
2023-05-20T11:58:13.896Z,74.94
2023-05-20T11:59:13.894Z,74.05
2023-05-20T12:00:13.897Z,73.82
2023-05-20T12:01:21.813Z,73.92
2023-05-20T12:02:16.051Z,73.92
2023-05-20T12:03:14.022Z,74.02
2023-05-20T12:04:14.093Z,73.72
2023-05-20T12:05:13.840Z,74.02
2023-05-20T12:06:13.836Z,73.72
2023-05-20T12:07:13.952Z,73.66
2023-05-20T12:08:13.785Z,74.05
2023-05-20T12:09:13.779Z,73.96
2023-05-20T12:10:13.820Z,73.96
2023-05-20T12:11:13.757Z,73.99
2023-05-20T12:12:13.783Z,74.48
2023-05-20T12:13:13.816Z,74.98
2023-05-20T12:14:13.733Z,74.78
2023-05-20T12:15:13.709Z,74.72
2023-05-20T12:16:13.757Z,74.82
2023-05-20T12:17:13.711Z,74.52
2023-05-20T12:18:13.677Z,75.01
2023-05-20T12:19:13.755Z,74.62
2023-05-20T12:20:13.781Z,74.82
2023-05-20T12:21:13.651Z,74.72
2023-05-20T12:22:13.673Z,74.76
2023-05-20T12:23:13.632Z,74.72
2023-05-20T12:24:13.664Z,74.72
2023-05-20T12:25:13.643Z,74.62
2023-05-20T12:26:13.594Z,74.82
2023-05-20T12:27:13.574Z,74.13
2023-05-20T12:28:13.607Z,74.38
2023-05-20T12:29:13.575Z,74.22
2023-05-20T12:30:13.540Z,73.99
2023-05-20T12:31:13.614Z,73.69
2023-05-20T12:32:13.557Z,74.09
2023-05-20T12:33:13.515Z,73.99
2023-05-20T12:34:13.512Z,74.09
2023-05-20T12:35:13.539Z,74.09
2023-05-20T12:36:13.537Z,73.99
2023-05-20T12:37:13.490Z,73.89
2023-05-20T12:38:13.463Z,73.75
2023-05-20T12:39:13.441Z,73.79
2023-05-20T12:40:13.460Z,73.89
2023-05-20T12:41:13.437Z,73.89
2023-05-20T12:42:13.438Z,73.60
2023-05-20T12:43:13.444Z,73.89
2023-05-20T12:44:13.405Z,73.89
2023-05-20T12:45:13.397Z,73.69
2023-05-20T12:46:13.358Z,73.86
2023-05-20T12:47:13.450Z,73.36
2023-05-20T12:48:13.477Z,73.30
2023-05-20T12:49:13.349Z,73.07
2023-05-20T12:50:13.318Z,73.07
2023-05-20T12:51:13.305Z,73.56
2023-05-20T12:52:21.928Z,73.56
2023-05-20T12:53:14.275Z,73.16